Time;durP1;ratioP1;P1;durP2;ratioP2;P2;SDS_P1;SDS_P2;PMS_P1;PMS_P2;Temp;Humidity;BMP_temperature;BMP_pressure;BME280_temperature;BME280_humidity;BME280_pressure;Samples;Min_cycle;Max_cycle;Signal;HPM_P1;HPM_P2
2022/03/07 00:02:10;;;;;;;3.05;1.55;;;19.20;46.00;;;;;;5013861;28;20053;-74
2022/03/07 00:04:36;;;;;;;3.08;1.63;;;19.20;46.10;;;;;;5013009;28;20022;-75
2022/03/07 00:07:02;;;;;;;3.30;1.55;;;19.20;46.10;;;;;;5012879;28;20118;-73
2022/03/07 00:09:28;;;;;;;4.35;2.33;;;19.20;46.10;;;;;;4995669;28;20061;-73
2022/03/07 00:11:54;;;;;;;2.88;1.52;;;19.20;46.10;;;;;;5012718;28;20421;-74
2022/03/07 00:14:19;;;;;;;2.92;1.73;;;19.20;46.00;;;;;;5013569;28;20026;-74
2022/03/07 00:16:45;;;;;;;3.83;1.83;;;19.10;45.90;;;;;;5013269;28;20045;-74
2022/03/07 00:19:11;;;;;;;3.63;1.67;;;19.20;46.00;;;;;;5013539;28;20470;-73
2022/03/07 00:21:37;;;;;;;3.75;1.73;;;19.20;46.00;;;;;;5013445;28;20048;-73
2022/03/07 00:24:05;;;;;;;3.17;1.58;;;19.10;45.90;;;;;;5013143;28;20049;-75
2022/03/07 00:26:30;;;;;;;3.58;1.52;;;19.10;45.90;;;;;;5012946;28;20056;-73
2022/03/07 00:28:56;;;;;;;2.47;1.30;;;19.10;45.80;;;;;;5013649;28;20093;-73
2022/03/07 00:31:23;;;;;;;3.28;1.48;;;19.10;45.80;;;;;;5013404;28;20042;-74
2022/03/07 00:33:49;;;;;;;3.28;1.67;;;19.10;45.80;;;;;;5013084;28;20106;-73
2022/03/07 00:36:16;;;;;;;3.70;1.45;;;19.10;45.80;;;;;;5013115;28;20032;-74
2022/03/07 00:38:41;;;;;;;3.00;1.67;;;19.10;45.70;;;;;;5013059;28;20026;-74
2022/03/07 00:41:09;;;;;;;2.78;1.55;;;19.10;45.70;;;;;;5011644;28;20409;-73
2022/03/07 00:43:35;;;;;;;3.63;1.65;;;19.10;45.70;;;;;;5012813;28;20500;-74
2022/03/07 00:46:02;;;;;;;3.13;1.63;;;19.10;45.60;;;;;;5013041;28;20024;-73
2022/03/07 00:48:27;;;;;;;4.32;1.90;;;19.10;45.60;;;;;;5012790;28;20441;-73
2022/03/07 00:50:53;;;;;;;3.00;1.67;;;19.10;45.60;;;;;;5013223;28;20092;-73
2022/03/07 00:53:21;;;;;;;2.95;1.70;;;19.00;45.50;;;;;;5012928;28;20022;-74
2022/03/07 00:55:48;;;;;;;3.80;2.22;;;19.00;45.50;;;;;;5012132;28;20041;-74
2022/03/07 00:58:14;;;;;;;3.13;1.60;;;19.00;45.60;;;;;;5012782;28;20053;-73
2022/03/07 01:00:41;;;;;;;2.88;1.38;;;19.00;45.60;;;;;;5012580;28;20022;-73
2022/03/07 01:03:08;;;;;;;3.70;1.65;;;19.00;45.60;;;;;;5012951;28;20038;-74
2022/03/07 01:05:35;;;;;;;3.30;1.70;;;19.00;45.50;;;;;;5012451;28;20022;-74
2022/03/07 01:08:01;;;;;;;3.90;1.77;;;19.00;45.50;;;;;;5012687;28;20108;-74
2022/03/07 01:10:27;;;;;;;2.33;1.67;;;19.00;45.50;;;;;;5011310;28;20037;-73
2022/03/07 01:12:53;;;;;;;3.97;1.67;;;19.00;45.40;;;;;;5012923;28;20028;-74
2022/03/07 01:15:19;;;;;;;2.80;1.67;;;18.90;45.30;;;;;;5011469;28;20030;-73
2022/03/07 01:17:44;;;;;;;3.42;1.52;;;18.90;45.40;;;;;;5012239;28;20402;-74
2022/03/07 01:20:11;;;;;;;3.83;1.55;;;18.90;45.40;;;;;;5012452;28;20028;-74
2022/03/07 01:22:38;;;;;;;3.20;1.67;;;18.90;45.30;;;;;;5010887;28;20034;-74
2022/03/07 01:25:05;;;;;;;3.83;1.50;;;18.90;45.40;;;;;;5012096;28;20053;-74
2022/03/07 01:27:32;;;;;;;4.22;1.50;;;18.90;45.30;;;;;;5012018;28;20022;-73
2022/03/07 01:29:57;;;;;;;2.97;1.40;;;18.90;45.20;;;;;;5012310;28;20030;-74
2022/03/07 01:32:23;;;;;;;3.80;1.83;;;18.90;45.30;;;;;;5012393;28;20486;-74
2022/03/07 01:34:49;;;;;;;4.45;1.95;;;18.90;45.20;;;;;;5011764;28;20065;-74
2022/03/07 01:37:15;;;;;;;6.57;1.90;;;18.90;45.20;;;;;;5012011;28;20026;-74
2022/03/07 01:39:41;;;;;;;2.75;1.65;;;18.90;45.20;;;;;;5011860;28;20088;-74
2022/03/07 01:42:07;;;;;;;3.00;1.50;;;18.90;45.20;;;;;;5012106;28;20025;-73
2022/03/07 01:44:34;;;;;;;2.38;1.50;;;18.90;45.10;;;;;;5011828;28;20056;-73
2022/03/07 01:47:00;;;;;;;3.90;1.52;;;18.80;45.10;;;;;;5012244;28;20389;-74
2022/03/07 01:49:26;;;;;;;3.60;1.60;;;18.90;45.10;;;;;;5012298;28;20083;-73
2022/03/07 01:51:52;;;;;;;3.45;1.50;;;18.80;45.00;;;;;;5011773;28;20022;-73
2022/03/07 01:54:20;;;;;;;3.60;1.52;;;18.80;45.00;;;;;;5010719;28;20026;-73
2022/03/07 01:56:48;;;;;;;3.05;1.52;;;18.80;45.00;;;;;;5011544;28;20037;-73
2022/03/07 01:59:17;;;;;;;3.50;1.92;;;18.80;45.00;;;;;;5011772;28;20482;-74
2022/03/07 02:01:43;;;;;;;2.63;1.45;;;18.80;45.00;;;;;;5011552;28;20026;-74
2022/03/07 02:04:10;;;;;;;4.47;2.20;;;18.80;45.00;;;;;;5010451;28;20569;-73
2022/03/07 02:06:38;;;;;;;4.53;1.98;;;18.80;45.00;;;;;;5011079;28;20109;-73
2022/03/07 02:09:04;;;;;;;2.95;1.77;;;18.80;45.00;;;;;;5011221;28;20022;-74
2022/03/07 02:11:29;;;;;;;3.75;1.67;;;18.80;44.90;;;;;;5011317;28;20022;-74
2022/03/07 02:13:55;;;;;;;3.28;1.88;;;18.80;45.00;;;;;;5011879;28;20395;-73
2022/03/07 02:16:21;;;;;;;3.53;1.67;;;18.80;45.00;;;;;;5011482;28;20076;-74
2022/03/07 02:18:47;;;;;;;3.42;1.70;;;18.80;44.90;;;;;;5010067;28;20931;-74
2022/03/07 02:21:15;;;;;;;3.45;1.73;;;18.80;44.90;;;;;;5011473;28;20491;-73
2022/03/07 02:23:43;;;;;;;4.78;1.90;;;18.80;44.90;;;;;;5010997;28;20076;-74
2022/03/07 02:26:09;;;;;;;3.90;1.58;;;18.80;44.90;;;;;;5011202;28;20026;-74
2022/03/07 02:28:36;;;;;;;4.07;1.73;;;18.70;44.80;;;;;;5011231;28;20064;-74
2022/03/07 02:31:02;;;;;;;3.83;1.77;;;18.70;44.80;;;;;;5011272;28;20037;-72
2022/03/07 02:33:27;;;;;;;3.65;1.30;;;18.70;44.80;;;;;;5011255;28;20030;-73
2022/03/07 02:35:53;;;;;;;3.72;1.95;;;18.70;44.70;;;;;;5011326;28;20026;-74
2022/03/07 02:38:18;;;;;;;3.53;1.90;;;18.70;44.70;;;;;;5010068;28;20053;-76
2022/03/07 02:40:46;;;;;;;3.55;1.60;;;18.70;44.70;;;;;;5011057;28;20522;-74
2022/03/07 02:43:12;;;;;;;4.15;2.10;;;18.70;44.60;;;;;;5011291;28;20029;-74
2022/03/07 02:45:37;;;;;;;3.85;1.77;;;18.70;44.60;;;;;;4993365;28;20043;-73
2022/03/07 02:48:03;;;;;;;4.35;1.85;;;18.70;44.60;;;;;;5011283;28;20417;-74
2022/03/07 02:50:29;;;;;;;4.65;1.80;;;18.70;44.60;;;;;;5010722;28;20034;-74
2022/03/07 02:52:56;;;;;;;4.22;1.88;;;18.70;44.60;;;;;;5011440;28;20084;-74
2022/03/07 02:55:23;;;;;;;4.00;2.20;;;18.70;44.60;;;;;;5011584;28;20026;-74
2022/03/07 02:57:48;;;;;;;3.92;1.70;;;18.60;44.50;;;;;;5010848;28;20041;-74
2022/03/07 03:00:14;;;;;;;3.90;1.92;;;18.60;44.50;;;;;;5011121;28;20017;-75
2022/03/07 03:02:40;;;;;;;3.72;1.77;;;18.60;44.50;;;;;;5009775;28;20030;-74
2022/03/07 03:05:06;;;;;;;4.22;1.52;;;18.60;44.50;;;;;;5011074;28;20026;-74
2022/03/07 03:07:32;;;;;;;3.00;1.75;;;18.70;44.50;;;;;;5010792;28;20029;-72
2022/03/07 03:09:58;;;;;;;4.65;2.40;;;18.60;44.50;;;;;;5009759;28;20033;-74
2022/03/07 03:12:24;;;;;;;3.47;1.45;;;18.60;44.50;;;;;;5011318;28;20088;-74
2022/03/07 03:14:50;;;;;;;4.45;1.88;;;18.60;44.40;;;;;;5009591;28;20026;-74
2022/03/07 03:17:16;;;;;;;3.92;1.42;;;18.60;44.40;;;;;;5011006;28;20037;-73
2022/03/07 03:19:42;;;;;;;4.95;1.90;;;18.60;44.40;;;;;;5017585;28;20046;-74
2022/03/07 03:22:08;;;;;;;5.47;1.65;;;18.60;44.40;;;;;;4991345;28;20486;-74
2022/03/07 03:24:34;;;;;;;3.95;1.85;;;18.60;44.40;;;;;;4991145;28;20038;-73
2022/03/07 03:26:59;;;;;;;4.55;1.80;;;18.60;44.40;;;;;;4991359;28;20497;-73
2022/03/07 03:29:25;;;;;;;3.45;1.75;;;18.60;44.30;;;;;;5023170;28;20033;-73
2022/03/07 03:31:51;;;;;;;3.13;1.60;;;18.60;44.30;;;;;;4989665;28;20121;-73
2022/03/07 03:34:16;;;;;;;4.43;1.80;;;18.60;44.30;;;;;;5004751;28;20050;-74
2022/03/07 03:36:42;;;;;;;3.65;1.73;;;18.60;44.30;;;;;;5010474;28;20112;-73
2022/03/07 03:39:08;;;;;;;3.42;1.77;;;18.60;44.20;;;;;;5012875;28;20060;-74
2022/03/07 03:41:33;;;;;;;3.33;1.75;;;18.50;44.20;;;;;;5012648;28;20469;-74
2022/03/07 03:43:59;;;;;;;4.28;1.80;;;18.60;44.20;;;;;;5014304;28;20482;-76
2022/03/07 03:46:25;;;;;;;3.80;2.25;;;18.50;44.20;;;;;;5014518;28;20057;-74
2022/03/07 03:48:50;;;;;;;3.90;1.90;;;18.50;44.20;;;;;;5013964;28;20105;-75
2022/03/07 03:51:16;;;;;;;3.08;1.80;;;18.50;44.80;;;;;;5014134;28;20389;-73
2022/03/07 03:53:42;;;;;;;5.47;1.83;;;18.50;44.30;;;;;;5013839;28;20496;-74
2022/03/07 03:56:07;;;;;;;4.22;1.85;;;18.50;44.20;;;;;;5012676;28;20030;-74
2022/03/07 03:58:34;;;;;;;2.92;1.75;;;18.50;44.20;;;;;;5013069;28;20482;-73
2022/03/07 04:00:59;;;;;;;3.65;1.45;;;18.50;44.20;;;;;;5013890;28;20022;-74
2022/03/07 04:03:26;;;;;;;4.57;1.70;;;18.50;44.20;;;;;;5014140;28;20104;-74
2022/03/07 04:05:52;;;;;;;4.07;1.60;;;18.50;44.20;;;;;;5012784;28;20033;-74
2022/03/07 04:08:18;;;;;;;4.03;1.80;;;18.50;44.20;;;;;;5013811;28;20030;-74
2022/03/07 04:10:44;;;;;;;2.92;1.63;;;18.50;44.10;;;;;;5013460;28;20025;-74
2022/03/07 04:13:09;;;;;;;5.57;1.80;;;18.50;44.10;;;;;;5013290;28;20034;-73
2022/03/07 04:15:38;;;;;;;3.67;2.00;;;18.50;44.20;;;;;;5012084;28;20022;-73
2022/03/07 04:18:06;;;;;;;5.13;1.35;;;18.50;44.10;;;;;;5013185;28;20117;-73
2022/03/07 04:20:32;;;;;;;2.80;1.67;;;18.50;44.70;;;;;;5013376;28;20073;-73
2022/03/07 04:23:00;;;;;;;3.90;1.73;;;18.50;44.40;;;;;;5013507;28;20113;-73
2022/03/07 04:25:25;;;;;;;3.40;1.70;;;18.40;44.00;;;;;;5013736;28;20037;-75
2022/03/07 04:27:51;;;;;;;3.45;1.95;;;18.50;44.10;;;;;;5013245;28;20032;-75
2022/03/07 04:30:16;;;;;;;4.30;2.00;;;18.50;44.60;;;;;;5013427;28;20450;-75
2022/03/07 04:32:42;;;;;;;3.05;1.80;;;18.40;44.00;;;;;;5012435;28;20092;-73
2022/03/07 04:35:10;;;;;;;3.45;1.60;;;18.50;44.00;;;;;;5013253;28;20478;-74
2022/03/07 04:37:39;;;;;;;3.53;1.40;;;18.40;43.90;;;;;;5012958;28;20065;-76
2022/03/07 04:40:08;;;;;;;2.92;1.60;;;18.40;43.90;;;;;;5013296;28;20018;-75
2022/03/07 04:42:34;;;;;;;3.17;1.48;;;18.40;43.90;;;;;;5013010;28;20458;-74
2022/03/07 04:45:00;;;;;;;3.00;1.65;;;18.50;43.90;;;;;;5013086;28;20417;-75
2022/03/07 04:47:25;;;;;;;3.47;1.90;;;18.40;43.80;;;;;;5012707;28;20033;-74
2022/03/07 04:49:51;;;;;;;3.55;1.73;;;18.40;43.90;;;;;;5012697;28;20050;-74
2022/03/07 04:52:17;;;;;;;3.95;1.67;;;18.40;43.90;;;;;;5013059;28;20238;-74
2022/03/07 04:54:42;;;;;;;3.08;1.77;;;18.40;43.90;;;;;;5011562;28;20026;-73
2022/03/07 04:57:08;;;;;;;3.47;1.77;;;18.40;43.90;;;;;;5012524;28;20038;-74
2022/03/07 04:59:34;;;;;;;3.55;1.90;;;18.40;43.90;;;;;;5012558;28;20089;-73
2022/03/07 05:01:59;;;;;;;3.10;1.50;;;18.40;43.80;;;;;;5012287;28;20486;-73
2022/03/07 05:04:25;;;;;;;3.28;1.70;;;18.40;43.80;;;;;;5013003;28;20018;-74
2022/03/07 05:06:51;;;;;;;2.88;1.30;;;18.40;43.70;;;;;;5010962;28;20033;-74
2022/03/07 05:09:16;;;;;;;2.50;1.45;;;18.40;43.70;;;;;;5011407;28;20116;-73
2022/03/07 05:11:42;;;;;;;3.42;1.60;;;18.40;43.70;;;;;;5012130;28;20034;-73
2022/03/07 05:14:07;;;;;;;3.38;1.38;;;18.40;43.70;;;;;;5011302;28;20097;-74
2022/03/07 05:16:33;;;;;;;3.50;1.70;;;18.40;43.70;;;;;;5010916;28;20522;-73
2022/03/07 05:18:59;;;;;;;3.13;1.50;;;18.40;43.60;;;;;;5012487;28;20041;-74
2022/03/07 05:21:25;;;;;;;3.70;2.08;;;18.40;43.60;;;;;;5012822;28;20026;-74
2022/03/07 05:23:50;;;;;;;4.68;1.85;;;18.40;43.60;;;;;;5010577;28;20489;-73
2022/03/07 05:26:16;;;;;;;2.83;1.55;;;18.40;43.60;;;;;;5012442;28;20041;-75
2022/03/07 05:28:42;;;;;;;3.88;1.40;;;18.40;43.60;;;;;;5011883;28;20076;-74
2022/03/07 05:31:12;;;;;;;4.25;1.75;;;18.40;43.60;;;;;;5012048;28;20034;-73
2022/03/07 05:33:41;;;;;;;2.30;1.10;;;18.40;43.60;;;;;;5012235;28;20036;-74
2022/03/07 05:36:07;;;;;;;2.47;1.60;;;18.40;43.60;;;;;;5012251;28;20057;-74
2022/03/07 05:38:33;;;;;;;3.63;1.80;;;18.40;43.60;;;;;;5011886;28;20034;-74
2022/03/07 05:40:59;;;;;;;2.13;1.42;;;18.40;43.60;;;;;;5012150;28;20010;-75
2022/03/07 05:43:25;;;;;;;3.05;1.52;;;18.40;43.60;;;;;;5012493;28;20037;-74
2022/03/07 05:45:51;;;;;;;2.67;1.50;;;18.40;43.60;;;;;;5011102;28;20025;-74
2022/03/07 05:48:16;;;;;;;3.90;1.48;;;18.40;43.50;;;;;;5011682;28;20030;-74
2022/03/07 05:50:42;;;;;;;2.47;1.27;;;18.40;43.50;;;;;;5011669;28;20425;-73
2022/03/07 05:53:08;;;;;;;3.55;1.50;;;18.40;43.50;;;;;;5011958;28;20032;-74
2022/03/07 05:55:34;;;;;;;3.20;1.77;;;18.40;43.50;;;;;;5011617;28;20021;-73
2022/03/07 05:58:00;;;;;;;4.22;2.08;;;18.40;43.40;;;;;;5011911;28;20033;-74
2022/03/07 06:00:27;;;;;;;2.95;1.55;;;18.40;43.40;;;;;;5011294;28;20053;-75
2022/03/07 06:02:53;;;;;;;2.58;1.40;;;18.40;43.40;;;;;;5011632;28;20030;-74
2022/03/07 06:05:19;;;;;;;2.05;1.30;;;18.40;43.40;;;;;;5011632;28;20038;-74
2022/03/07 06:07:45;;;;;;;2.72;1.60;;;18.40;43.40;;;;;;5010213;28;20472;-75
2022/03/07 06:10:11;;;;;;;2.28;1.42;;;18.40;43.30;;;;;;5010791;28;20109;-75
2022/03/07 06:12:36;;;;;;;3.95;1.63;;;18.40;43.30;;;;;;5011411;28;20034;-75
2022/03/07 06:15:04;;;;;;;3.00;1.48;;;18.40;43.30;;;;;;5011572;28;20505;-75
2022/03/07 06:17:34;;;;;;;2.45;1.35;;;18.40;43.30;;;;;;5010013;28;20038;-75
2022/03/07 06:20:00;;;;;;;3.08;1.77;;;18.40;43.20;;;;;;5010415;28;20021;-74
2022/03/07 06:22:26;;;;;;;2.92;1.77;;;18.40;43.30;;;;;;5011376;28;20066;-74
2022/03/07 06:24:52;;;;;;;3.53;1.48;;;18.40;43.40;;;;;;5010902;28;20064;-74
2022/03/07 06:27:17;;;;;;;3.78;1.90;;;18.30;43.10;;;;;;5011341;28;20038;-75
2022/03/07 06:29:43;;;;;;;2.28;1.45;;;18.40;43.10;;;;;;5007039;28;20069;-74
2022/03/07 06:32:09;;;;;;;2.92;1.88;;;18.30;43.10;;;;;;4998071;28;20084;-75
2022/03/07 06:34:35;;;;;;;4.22;1.80;;;18.30;43.00;;;;;;5010668;28;20018;-76
2022/03/07 06:37:02;;;;;;;2.92;1.27;;;18.30;43.00;;;;;;5010937;28;20485;-74
2022/03/07 06:39:27;;;;;;;2.10;1.05;;;18.30;43.10;;;;;;5011122;28;20026;-75
2022/03/07 06:41:56;;;;;;;2.90;1.30;;;18.30;43.10;;;;;;5011557;28;20033;-75
2022/03/07 06:44:23;;;;;;;2.22;1.58;;;18.30;43.10;;;;;;5011554;28;20029;-74
2022/03/07 06:46:48;;;;;;;2.47;1.65;;;18.30;43.10;;;;;;5011101;28;20152;-74
2022/03/07 06:49:14;;;;;;;3.15;1.65;;;18.30;43.10;;;;;;5010791;28;20482;-75
2022/03/07 06:51:40;;;;;;;2.28;1.35;;;18.20;42.90;;;;;;5010718;28;20030;-77
2022/03/07 06:54:06;;;;;;;3.17;1.65;;;18.20;43.60;;;;;;5011170;28;20053;-77
2022/03/07 06:56:31;;;;;;;3.92;1.60;;;18.30;43.00;;;;;;5010382;28;20394;-74
2022/03/07 06:58:57;;;;;;;4.20;1.60;;;18.20;43.40;;;;;;5010581;28;20033;-75
2022/03/07 07:01:23;;;;;;;4.55;1.60;;;18.30;43.70;;;;;;5010215;28;20500;-74
2022/03/07 07:03:49;;;;;;;6.70;1.65;;;18.30;43.80;;;;;;5008922;28;20486;-74
2022/03/07 07:06:15;;;;;;;5.80;1.75;;;18.20;44.00;;;;;;5010387;28;20057;-77
2022/03/07 07:08:40;;;;;;;3.92;1.80;;;18.20;44.30;;;;;;5010621;28;20477;-75
2022/03/07 07:11:06;;;;;;;3.65;1.38;;;18.20;44.70;;;;;;5011016;28;20033;-75
2022/03/07 07:13:32;;;;;;;3.60;1.63;;;18.30;45.40;;;;;;4993116;28;20026;-74
2022/03/07 07:15:58;;;;;;;2.63;1.40;;;18.30;45.70;;;;;;5014625;28;20109;-76
2022/03/07 07:18:24;;;;;;;5.13;1.65;;;18.30;45.70;;;;;;5014822;28;20117;-74
2022/03/07 07:20:52;;;;;;;4.57;1.83;;;18.30;46.00;;;;;;5014257;28;20474;-74
2022/03/07 07:23:19;;;;;;;3.05;2.00;;;18.20;46.10;;;;;;5014667;28;20029;-76
2022/03/07 07:25:45;;;;;;;5.43;1.58;;;18.30;46.30;;;;;;5013870;28;20030;-74
2022/03/07 07:28:11;;;;;;;4.90;1.95;;;18.20;46.20;;;;;;5014828;28;20030;-73
2022/03/07 07:30:37;;;;;;;4.07;1.55;;;18.20;46.10;;;;;;5014091;28;20030;-76
2022/03/07 07:33:04;;;;;;;4.80;2.08;;;18.20;45.90;;;;;;4996797;28;20025;-74
2022/03/07 07:35:29;;;;;;;2.92;1.92;;;18.20;45.80;;;;;;5014201;28;20064;-74
2022/03/07 07:37:55;;;;;;;4.38;1.58;;;18.20;45.80;;;;;;5013689;28;20069;-77
2022/03/07 07:40:21;;;;;;;2.45;1.50;;;18.20;45.70;;;;;;5013365;28;20054;-74
2022/03/07 07:42:47;;;;;;;2.38;1.55;;;18.20;45.70;;;;;;5012862;28;20034;-75
2022/03/07 07:45:12;;;;;;;4.03;2.00;;;18.20;45.60;;;;;;5013601;28;20029;-80
2022/03/07 07:47:39;;;;;;;5.05;2.05;;;18.30;45.50;;;;;;5013028;28;20022;-76
2022/03/07 07:50:06;;;;;;;3.83;1.88;;;18.30;45.60;;;;;;5012569;28;20026;-74
2022/03/07 07:52:31;;;;;;;4.50;1.33;;;18.30;45.50;;;;;;5013711;28;20018;-76
2022/03/07 07:54:57;;;;;;;3.70;1.63;;;18.30;45.40;;;;;;5012368;28;20034;-76
2022/03/07 07:57:23;;;;;;;5.15;1.83;;;18.30;45.40;;;;;;5014160;28;20034;-74
2022/03/07 07:59:48;;;;;;;1.83;1.20;;;18.30;45.50;;;;;;5013515;28;20065;-73
2022/03/07 08:02:14;;;;;;;3.10;1.65;;;18.30;45.40;;;;;;4996343;28;20026;-73
2022/03/07 08:04:40;;;;;;;3.95;1.73;;;18.40;45.40;;;;;;4995719;28;20030;-76
2022/03/07 08:07:05;;;;;;;3.85;1.70;;;18.30;45.20;;;;;;5013336;28;20080;-73
2022/03/07 08:09:31;;;;;;;3.35;1.63;;;18.40;45.10;;;;;;5012930;28;20026;-75
2022/03/07 08:11:56;;;;;;;4.53;1.60;;;18.40;45.00;;;;;;5013925;28;20030;-74
2022/03/07 08:14:23;;;;;;;2.83;1.40;;;18.40;45.00;;;;;;5014082;28;20026;-73
2022/03/07 08:16:49;;;;;;;1.98;1.30;;;18.40;45.00;;;;;;5012496;28;20026;-74
2022/03/07 08:19:15;;;;;;;2.90;1.35;;;18.40;45.00;;;;;;5012327;28;20113;-74
2022/03/07 08:21:41;;;;;;;4.32;1.48;;;18.40;45.00;;;;;;5012539;28;20490;-77
2022/03/07 08:24:07;;;;;;;2.70;1.40;;;18.40;44.90;;;;;;5013017;28;20034;-74
2022/03/07 08:26:33;;;;;;;4.47;1.70;;;18.40;44.90;;;;;;5008441;28;20445;-74
2022/03/07 08:28:59;;;;;;;3.40;1.33;;;18.40;44.80;;;;;;5013295;28;20046;-73
2022/03/07 08:31:24;;;;;;;3.83;1.25;;;18.40;44.70;;;;;;5013561;28;20064;-74
2022/03/07 08:33:50;;;;;;;4.63;1.70;;;18.40;44.70;;;;;;5012492;28;20504;-73
2022/03/07 08:36:15;;;;;;;4.22;1.50;;;18.40;44.60;;;;;;5012923;28;20076;-74
2022/03/07 08:38:41;;;;;;;3.65;1.27;;;18.40;44.40;;;;;;5013023;28;20030;-80
2022/03/07 08:41:07;;;;;;;3.60;1.50;;;18.50;44.50;;;;;;5012687;28;20014;-80
2022/03/07 08:43:33;;;;;;;2.60;1.25;;;18.50;44.40;;;;;;4995132;28;20034;-76
2022/03/07 08:45:59;;;;;;;2.67;1.30;;;18.50;44.40;;;;;;5013045;28;20044;-74
2022/03/07 08:48:24;;;;;;;3.25;1.42;;;18.50;44.40;;;;;;5013136;28;20029;-78
2022/03/07 08:50:53;;;;;;;2.88;1.33;;;18.50;44.40;;;;;;5012775;28;20030;-82
2022/03/07 08:53:19;;;;;;;7.45;2.63;;;18.50;44.30;;;;;;5011633;28;20025;-80
2022/03/07 08:55:45;;;;;;;5.72;2.38;;;18.60;44.40;;;;;;5015517;28;20426;-77
2022/03/07 08:58:11;;;;;;;6.63;2.58;;;18.60;44.40;;;;;;5012382;28;20097;-75
2022/03/07 09:00:36;;;;;;;4.80;2.10;;;18.60;44.30;;;;;;5012560;28;20378;-78
2022/03/07 09:03:04;;;;;;;8.35;2.08;;;18.60;44.40;;;;;;5011242;28;20029;-74
2022/03/07 09:05:30;;;;;;;3.60;2.13;;;18.60;44.50;;;;;;5012573;28;20018;-79
2022/03/07 09:07:56;;;;;;;4.68;1.90;;;18.60;44.60;;;;;;5011720;28;20392;-75
2022/03/07 09:10:21;;;;;;;3.67;1.52;;;18.60;44.60;;;;;;5012757;28;20101;-77
2022/03/07 09:12:48;;;;;;;4.75;1.90;;;18.60;44.50;;;;;;4994863;28;20033;-80
2022/03/07 09:15:14;;;;;;;6.93;1.83;;;18.60;44.50;;;;;;5012575;28;20018;-81
2022/03/07 09:17:40;;;;;;;3.03;1.40;;;18.60;44.40;;;;;;4994264;28;20049;-79
2022/03/07 09:20:08;;;;;;;5.00;1.55;;;18.60;44.30;;;;;;5011249;28;20026;-82
2022/03/07 09:22:34;;;;;;;5.22;2.15;;;18.60;44.10;;;;;;5012413;28;20521;-82
2022/03/07 09:25:03;;;;;;;4.03;1.50;;;18.70;44.00;;;;;;5012409;28;20355;-79
2022/03/07 09:27:28;;;;;;;3.25;1.65;;;18.70;43.90;;;;;;5010884;28;20481;-82
2022/03/07 09:29:54;;;;;;;4.38;1.52;;;18.70;43.80;;;;;;5012640;28;20114;-82
2022/03/07 09:32:20;;;;;;;3.80;1.20;;;18.70;43.70;;;;;;5012204;28;20485;-73
2022/03/07 09:34:46;;;;;;;2.72;1.20;;;18.70;43.70;;;;;;5011983;28;20030;-81
2022/03/07 09:37:12;;;;;;;4.90;1.45;;;18.70;43.60;;;;;;5011046;28;20049;-82
2022/03/07 09:39:37;;;;;;;4.20;1.77;;;18.70;43.60;;;;;;5011922;28;20014;-75
2022/03/07 09:42:04;;;;;;;2.38;1.17;;;18.70;43.50;;;;;;5011686;28;20030;-77
2022/03/07 09:44:30;;;;;;;6.22;1.65;;;18.80;43.40;;;;;;5011841;28;20022;-74
2022/03/07 09:46:57;;;;;;;2.92;1.30;;;18.80;43.40;;;;;;5012349;28;20032;-75
2022/03/07 09:49:23;;;;;;;3.05;1.52;;;18.80;43.40;;;;;;5011710;28;20022;-77
2022/03/07 09:51:49;;;;;;;3.50;1.17;;;18.70;43.20;;;;;;5011718;28;20371;-79
2022/03/07 09:54:15;;;;;;;5.13;1.40;;;18.70;43.20;;;;;;5011954;28;20033;-82
2022/03/07 09:56:40;;;;;;;4.10;1.38;;;18.70;43.10;;;;;;5011543;28;20037;-83
2022/03/07 09:59:07;;;;;;;3.13;1.40;;;18.70;43.10;;;;;;5011852;28;20069;-74
2022/03/07 10:01:33;;;;;;;3.25;1.52;;;18.70;43.00;;;;;;5011384;28;20025;-74
2022/03/07 10:04:14;;;;;;;3.75;1.10;;;18.70;43.00;;;;;;5011328;28;20037;-82
2022/03/07 10:06:52;;;;;;;2.38;0.98;;;18.70;43.00;;;;;;4994239;28;20032;-73
2022/03/07 10:09:28;;;;;;;3.13;1.38;;;18.80;42.90;;;;;;4992412;28;20505;-74
2022/03/07 10:12:00;;;;;;;2.25;0.90;;;18.80;42.90;;;;;;5012005;28;20022;-73
2022/03/07 10:14:42;;;;;;;2.38;1.00;;;18.80;42.80;;;;;;5011910;28;20026;-75
2022/03/07 10:17:24;;;;;;;3.35;1.33;;;18.80;42.70;;;;;;5011695;28;20084;-76
2022/03/07 10:19:51;;;;;;;2.60;1.08;;;18.80;42.60;;;;;;5011339;28;20026;-82
2022/03/07 10:22:19;;;;;;;2.38;1.17;;;18.80;42.50;;;;;;5011276;28;20022;-82
2022/03/07 10:24:45;;;;;;;1.88;0.90;;;18.80;42.70;;;;;;5010870;28;20470;-77
2022/03/07 10:27:31;;;;;;;4.10;1.50;;;18.80;42.50;;;;;;5010420;28;20026;-80
2022/03/07 10:29:56;;;;;;;3.90;1.25;;;18.90;42.50;;;;;;5011359;28;20076;-84
2022/03/07 10:32:22;;;;;;;2.30;1.20;;;18.90;42.50;;;;;;5011513;28;20042;-75
2022/03/07 10:34:48;;;;;;;3.60;0.98;;;18.90;42.40;;;;;;5011177;28;20034;-73
2022/03/07 10:37:14;;;;;;;2.80;1.00;;;18.90;42.30;;;;;;5011341;28;20034;-78
2022/03/07 10:39:50;;;;;;;2.65;1.30;;;18.90;42.30;;;;;;5011128;28;20436;-82
2022/03/07 10:42:17;;;;;;;2.03;0.80;;;18.90;42.20;;;;;;5011434;28;20049;-78
2022/03/07 10:44:44;;;;;;;1.92;1.42;;;18.90;42.20;;;;;;5010130;28;20446;-74
2022/03/07 10:47:19;;;;;;;2.13;1.00;;;18.90;42.20;;;;;;5011664;28;20505;-80
2022/03/07 10:49:46;;;;;;;;;;;18.90;42.10;;;;;;5015550;28;20029;-77
2022/03/07 10:52:11;;;;;;;2.58;1.10;;;19.00;42.00;;;;;;5015238;28;19906;-81
2022/03/07 10:54:37;;;;;;;1.77;0.90;;;19.00;41.90;;;;;;5014167;28;20440;-78
2022/03/07 10:57:03;;;;;;;1.88;0.93;;;19.00;41.90;;;;;;5011461;28;20516;-74
2022/03/07 10:59:31;;;;;;;1.83;1.10;;;19.10;41.80;;;;;;5014842;28;20105;-79
2022/03/07 11:02:06;;;;;;;2.53;1.10;;;19.10;41.80;;;;;;5014703;28;20105;-74
2022/03/07 11:04:33;;;;;;;2.67;1.00;;;19.10;41.70;;;;;;5014306;28;20030;-75
2022/03/07 11:06:59;;;;;;;3.10;1.00;;;19.10;41.50;;;;;;5015109;28;20041;-77
2022/03/07 11:09:27;;;;;;;2.00;1.10;;;19.20;41.50;;;;;;5014931;28;20025;-73
2022/03/07 11:11:53;;;;;;;3.35;1.10;;;19.20;41.50;;;;;;5015304;28;20489;-79
2022/03/07 11:14:21;;;;;;;2.47;1.13;;;19.30;41.40;;;;;;5014394;28;20402;-77
2022/03/07 11:16:49;;;;;;;2.03;1.25;;;19.30;41.40;;;;;;5014563;28;20382;-82
2022/03/07 11:19:18;;;;;;;2.05;1.10;;;19.40;41.20;;;;;;5014277;28;20030;-82
2022/03/07 11:21:50;;;;;;;3.60;1.00;;;19.40;41.00;;;;;;5013046;28;20430;-77
2022/03/07 11:24:16;;;;;;;3.28;1.02;;;19.40;41.00;;;;;;5014359;28;20026;-79
2022/03/07 11:26:43;;;;;;;2.63;1.00;;;19.60;40.30;;;;;;5014611;28;20049;-76
2022/03/07 11:29:09;;;;;;;5.13;1.13;;;19.60;40.70;;;;;;5014314;28;20493;-76
2022/03/07 11:31:35;;;;;;;2.10;1.17;;;19.60;40.80;;;;;;5014152;28;20057;-76
2022/03/07 11:34:07;;;;;;;5.32;1.85;;;19.70;41.10;;;;;;5014478;28;20060;-75
2022/03/07 11:36:37;;;;;;;4.03;1.65;;;19.80;45.40;;;;;;5014111;28;20110;-78
2022/03/07 11:39:04;;;;;;;4.97;1.45;;;20.00;46.50;;;;;;5014587;28;20034;-75
2022/03/07 11:41:38;;;;;;;3.20;1.30;;;20.10;47.00;;;;;;5013883;28;20437;-75
2022/03/07 11:44:04;;;;;;;3.47;1.25;;;20.30;46.30;;;;;;5013834;28;20033;-79
2022/03/07 11:46:40;;;;;;;3.10;1.30;;;20.40;46.90;;;;;;5013815;28;20033;-80
2022/03/07 11:49:06;;;;;;;;;;;;;;;;;;5013885;28;20029;-78
2022/03/07 11:51:35;;;;;;;;;;;20.70;46.00;;;;;;4996191;28;20320;-75
2022/03/07 11:54:01;;;;;;;3.65;1.10;;;;;;;;;;5009825;28;19988;-79
2022/03/07 11:56:37;;;;;;;2.97;1.08;;;;;;;;;;5013352;28;20038;-77
2022/03/07 11:59:05;;;;;;;4.07;1.33;;;;;;;;;;5015602;28;20022;-76
2022/03/07 12:01:32;;;;;;;2.35;1.15;;;21.10;43.50;;;;;;5012859;28;20026;-78
2022/03/07 12:04:14;;;;;;;3.92;1.42;;;25.90;36.40;;;;;;5013528;28;20040;-77
2022/03/07 12:06:51;;;;;;;4.20;1.23;;;27.60;34.20;;;;;;5012157;28;20032;-75
2022/03/07 12:09:32;;;;;;;1.67;0.80;;;28.80;31.90;;;;;;5013564;28;20034;-77
2022/03/07 12:12:07;;;;;;;6.53;1.13;;;29.90;30.60;;;;;;5013370;28;20486;-77
2022/03/07 12:14:37;;;;;;;4.05;1.50;;;30.70;29.50;;;;;;5008841;28;20026;-75
2022/03/07 12:17:14;;;;;;;3.17;0.85;;;31.40;28.70;;;;;;5011115;28;20080;-76
2022/03/07 12:19:41;;;;;;;3.22;0.98;;;;;;;;;;4983006;28;20026;-78
2022/03/07 12:22:15;;;;;;;4.82;1.35;;;31.80;28.30;;;;;;5023979;28;20549;-77
2022/03/07 12:24:42;;;;;;;2.13;1.00;;;32.90;27.40;;;;;;5012921;28;20433;-75
2022/03/07 12:27:09;;;;;;;4.40;1.40;;;33.30;26.90;;;;;;5012850;28;20508;-77
2022/03/07 12:29:39;;;;;;;3.95;1.20;;;33.80;26.50;;;;;;5012283;28;20457;-76
2022/03/07 12:32:05;;;;;;;3.53;1.10;;;34.10;26.10;;;;;;5021385;28;20045;-76
2022/03/07 12:34:32;;;;;;;3.00;1.10;;;;;;;;;;5009359;28;20375;-78
2022/03/07 12:36:59;;;;;;;2.10;1.10;;;;;;;;;;5011537;28;20045;-76
2022/03/07 12:39:26;;;;;;;2.65;0.95;;;;;;;;;;5013136;28;20026;-75
2022/03/07 12:41:52;;;;;;;3.95;1.60;;;;;;;;;;5012472;28;20375;-83
2022/03/07 12:44:18;;;;;;;2.00;1.13;;;;;;;;;;5012808;28;20533;-81
2022/03/07 12:46:44;;;;;;;3.17;1.30;;;34.70;25.70;;;;;;5012490;28;20034;-82
2022/03/07 12:49:16;;;;;;;3.72;1.27;;;35.60;24.80;;;;;;5012509;28;20129;-80